フィレンツェ・ペレトラ空港の過去48時間の天気

フィレンツェ・ペレトラ空港 (Firenze / Peretola)

現在時刻: 12/6 11:33 CET (12/6 10:33 UTC) 以下の時間は現地時間です。

過去48時間のMETAR気象情報
時間 風向 風速(m/s) 視程 気温(℃) 湿度(%) 気圧(hPa) 天気現象
6 11:20 不定 1 2500m 12 100 1015 もや
6 10:50 不定 1 2000m 12 100 1015 もや
6 10:20 不定 1 2500m 12 100 1015 もや
6 09:50 不定 1 2500m 12 94 1015 もや
6 09:20 西北西 1 1500m 12 94 1015 もや
6 07:50 不定 1 2000m 11 100 1015 もや
6 07:20 北西 2 2000m 11 100 1015 もや
6 06:50 西 1 2200m 11 100 1015 散在した霧
6 06:20 不定 1 2200m 11 100 1015 もや
6 05:50 南西 1 4000m 11 100 1015 もや
6 05:20 不定 1 7000m 12 94 1015
6 04:50 西北西 1 10km以上 12 94 1015
6 04:20 不定 1 10km以上 12 94 1016
6 03:50 南東 2 10km以上 12 100 1016
6 02:50 東南東 2 10km以上 12 100 1016
6 02:20 3 10km以上 12 100 1016
6 01:50 3 10km以上 12 100 1016
6 01:20 南東 3 10km以上 12 100 1016
6 00:50 東南東 2 10km以上 12 100 1017 弱い雨
6 00:20 東南東 2 10km以上 12 94 1017 弱い雨
5 23:50 不定 1 10km以上 12 100 1017 弱い雨
5 23:20 北北東 2 10km以上 12 100 1017 弱い雨
5 22:50 北北西 2 10km以上 12 100 1017 弱い雨
5 22:20 2 9000m 12 100 1017 弱い雨
5 21:50 不定 1 8000m 12 100 1017
5 21:20 不定 1 10km以上 13 88 1017 弱い雨
5 20:50 不定 2 10km以上 14 82 1017 弱い雨
5 20:20 4 10km以上 13 88 1017
5 19:50 3 10km以上 13 88 1017
5 19:20 東南東 3 10km以上 13 88 1017
5 18:50 南南東 2 10km以上 13 88 1016
5 18:20 南東 2 10km以上 13 88 1016
5 17:50 南東 2 10km以上 14 88 1016
5 17:20 不定 1 10km以上 14 88 1016
5 16:50 南東 2 10km以上 14 88 1016
5 16:20 西南西 2 10km以上 15 82 1016 弱い雨
5 15:50 南南東 3 10km以上 16 82 1016
5 15:20 南南東 2 10km以上 16 82 1017
5 14:50 南東 2 10km以上 16 82 1017
5 14:20 不定 1 10km以上 15 88 1017
5 13:50 不定 1 10km以上 15 88 1017
5 13:20 不定 1 10km以上 15 88 1017
5 12:50 不定 1 10km以上 15 88 1018
5 12:20 南南東 2 10km以上 15 82 1018
5 11:50 不定 1 10km以上 14 88 1018
5 11:20 南東 2 10km以上 14 88 1019
5 10:50 東南東 2 10km以上 13 94 1019 弱い雨
5 10:20 東南東 2 10km以上 12 100 1019
5 09:50 南東 3 8000m 12 100 1019 弱い雨
5 09:20 2 10km以上 12 94 1019
5 08:50 東南東 2 10km以上 11 100 1019 弱い雨
5 08:20 南東 2 6000m 11 100 1019 弱い雨
5 07:50 東南東 3 10km以上 11 100 1018 弱い雨
5 07:20 南東 2 10km以上 11 100 1018
5 06:50 東南東 4 5000m 11 100 1018
5 06:20 2 5000m 11 94 1018
5 05:50 東北東 2 8000m 11 94 1017
5 05:20 東南東 3 4300m 11 94 1017 強い雨
5 04:50 2 10km以上 12 94 1017 弱い雨
5 04:20 北西 2 2100m 12 94 1017 強い雨
5 03:50 北北西 3 10km以上 12 94 1017
5 03:20 3 10km以上 12 94 1017 弱い雨
5 02:50 東北東 3 10km以上 11 94 1017 弱い雨
5 02:20 不定 2 10km以上 12 88 1017
5 01:50 不定 1 10km以上 12 94 1017 強い雨
5 01:20 3 10km以上 12 94 1016 弱い雨
5 00:50 不定 2 10km以上 12 94 1016 弱い雨
5 00:20 東南東 3 10km以上 12 94 1016 弱い雨
4 23:50 3 10km以上 12 94 1017 弱い雨
4 23:20 4 10km以上 12 94 1017
4 22:50 3 10km以上 13 88 1017 弱い雨
4 22:20 南東 2 10km以上 13 88 1017 弱い雨
4 21:50 東南東 3 10km以上 13 88 1016 弱い雨
4 21:20 東南東 3 10km以上 13 88 1016
4 20:50 東南東 3 10km以上 12 94 1016
4 20:20 南東 2 10km以上 11 100 1016
4 19:50 不定 1 10km以上 10 100 1016
4 19:20 不定 1 10km以上 11 94 1016
4 18:50 南東 1 10km以上 11 100 1016
4 18:20 不定 1 10km以上 12 94 1015
4 17:50 不定 1 10km以上 12 94 1015
4 17:20 2 10km以上 11 94 1015
4 16:50 不定 1 10km以上 12 94 1014
4 16:20 不定 1 10km以上 14 82 1014
4 15:50 北北西 1 10km以上 14 88 1014
4 15:20 不定 1 10km以上 15 77 1014
4 14:50 不定 1 10km以上 15 77 1014 弱い雨
4 14:20 北北西 2 10km以上 14 88 1013
4 13:50 不定 1 10km以上 14 88 1013
4 13:20 不定 1 10km以上 14 88 1013
4 12:50 不定 1 10km以上 14 82 1013 弱い霧雨
4 12:20 北北西 2 10km以上 13 88 1013
4 11:50 北北西 2 10km以上 13 88 1013
LIRQ 061020Z VRB01KT 2500 BR OVC003 12/12 Q1015
LIRQ 060950Z VRB01KT 2000 BR OVC003 12/12 Q1015
LIRQ 060920Z VRB01KT 2500 BR OVC003 12/12 Q1015
LIRQ 060850Z VRB02KT 2500 BR BKN004 12/11 Q1015
LIRQ 060820Z 30001KT 1500 BR BKN003 12/11 Q1015
LIRQ 060650Z VRB02KT 2000 BR BKN003 11/11 Q1015
LIRQ 060620Z 32003KT 2000 BR BKN003 11/11 Q1015
LIRQ 060550Z 28001KT 2200 0600SE BCFG SCT003 BKN025 11/11 Q1015
LIRQ 060520Z VRB01KT 2200 R05/1200D BR SCT004 BKN025 11/11 Q1015
LIRQ 060450Z 22002KT 4000 BR SCT008 BKN027 11/11 Q1015
LIRQ 060420Z VRB01KT 7000 BKN030 12/11 Q1015
LIRQ 060350Z 30002KT 9999 BKN030 12/11 Q1015
LIRQ 060320Z VRB01KT 9999 BKN030 12/11 Q1016
LIRQ 060250Z 14003KT 110V170 9999 SCT030 12/12 Q1016
LIRQ 060150Z 11004KT 9999 BKN030 12/12 Q1016
LIRQ 060120Z 10005KT 9999 BKN030 12/12 Q1016
LIRQ 060050Z 10006KT 9999 BKN030 12/12 Q1016
LIRQ 060020Z 14005KT 9999 BKN040 12/12 Q1016
LIRQ 052350Z 11003KT 9999 -RA BKN040 12/12 Q1017
LIRQ 052320Z 11004KT 9999 -RA BKN040 12/11 Q1017
LIRQ 052250Z VRB02KT 9999 -RA BKN025 12/12 Q1017
LIRQ 052220Z 02003KT 9999 -RA BKN030 12/12 Q1017
LIRQ 052150Z 34003KT 310V020 9999 -RA SCT030 BKN065 12/12 Q1017
LIRQ 052120Z 08003KT 010V110 9000 -RA SCT035 BKN055 12/12 Q1017 RERA
LIRQ 052050Z VRB02KT 8000 RA FEW030 SCT050 BKN065 12/12 Q1017
LIRQ 052020Z VRB02KT 9999 -RA FEW025 SCT050 BKN075 13/11 Q1017
LIRQ 051950Z VRB03KT 9999 -RA SCT045 BKN065 14/11 Q1017
LIRQ 051920Z 10008KT 080V140 9999 BKN050 13/11 Q1017
LIRQ 051850Z 08005KT 9999 BKN050 13/11 Q1017
LIRQ 051820Z 12006KT 9999 SCT045 BKN070 13/11 Q1017
LIRQ 051750Z 15004KT 9999 FEW060 13/11 Q1016
LIRQ 051720Z 14004KT 9999 SCT045 BKN080 13/11 Q1016
LIRQ 051650Z 14004KT 120V200 9999 SCT045 BKN080 14/12 Q1016
LIRQ 051620Z VRB02KT 9999 SCT045 BKN080 14/12 Q1016
LIRQ 051550Z 14004KT 120V180 9999 BKN080 14/12 Q1016
LIRQ 051520Z 24004KT 180V270 9999 -RA SCT045 BKN075 15/12 Q1016
LIRQ 051450Z 16005KT 130V190 9999 BKN045 16/13 Q1016
LIRQ 051420Z 15004KT 130V190 9999 SCT025 BKN065 16/13 Q1017
LIRQ 051350Z 13003KT 070V160 9999 FEW025 SCT070 16/13 Q1017
LIRQ 051320Z VRB02KT 9999 FEW025 BKN070 15/13 Q1017
LIRQ 051250Z VRB01KT 9999 FEW025 BKN060 15/13 Q1017
LIRQ 051220Z VRB01KT 9999 FEW025 BKN060 15/13 Q1017
LIRQ 051150Z VRB02KT 9999 FEW025 BKN070 15/13 Q1018
LIRQ 051120Z 16003KT 120V190 9999 FEW025 SCT070 15/12 Q1018
LIRQ 051050Z VRB02KT 9999 FEW027 BKN080 14/12 Q1018
LIRQ 051020Z 13003KT 100V160 9999 FEW027 SCT080 14/12 Q1019
LIRQ 050950Z 11004KT 9999 -RA FEW027 BKN040 13/12 Q1019
LIRQ 050920Z 11004KT 9999 FEW025 BKN040 12/12 Q1019
LIRQ 050850Z 14005KT 8000 -RA FEW025 BKN040 12/12 Q1019
LIRQ 050820Z 10004KT 9999 FEW027 BKN040 12/11 Q1019
LIRQ 050750Z 11004KT 070V130 9999 -RA FEW027 BKN040 11/11 Q1019
LIRQ 050720Z 14003KT 6000 -RA SCT027 BKN050 11/11 Q1019
LIRQ 050650Z 12005KT 9999 -RA SCT032 OVC060 11/11 Q1018 RERA
LIRQ 050620Z 13004KT 9999 RA SCT040 OVC060 11/11 Q1018
LIRQ 050550Z AUTO 12007KT 100V160 5000 RA OVC049/// 11/11 Q1018
LIRQ 050520Z AUTO 09003KT 040V140 5000 RA FEW019/// OVC029/// 11/10 Q1018
LIRQ 050450Z AUTO 07004KT 8000 RA BKN039/// 11/10 Q1017
LIRQ 050420Z AUTO 12006KT 070V190 4300 +RA BKN027/// 11/10 Q1017 RETS
LIRQ 050350Z AUTO 36003KT 280V040 9999 -RA BKN026/// 12/11 Q1017 RERA
LIRQ 050320Z AUTO 32004KT 280V030 2100 +RA FEW011/// BKN019/// 12/11 Q1017 RETS
LIRQ 050250Z AUTO 33005KT 9999 BKN025/// BKN049/// 12/11 Q1017
LIRQ 050220Z AUTO VRB06KT 9999 -RA FEW007/// BKN021/// BKN055/// 12/11 Q1017
LIRQ 050150Z AUTO 07005KT 9999 -RA SCT022/// BKN053/// 11/10 Q1017
LIRQ 050120Z AUTO VRB04KT 9999 FEW019/// BKN024/// 12/10 Q1017 RERA
LIRQ 050050Z AUTO VRB02KT 9999 +RA BKN010/// BKN044/// 12/11 Q1017
LIRQ 050020Z AUTO 09005KT 9999 -RA BKN031/// 12/11 Q1016 RERA
LIRQ 042350Z AUTO VRB04KT 9999 -RA BKN031/// BKN053/// 12/11 Q1016
LIRQ 042320Z AUTO 11006KT 9999 -RA BKN046/// 12/11 Q1016 RERA
LIRQ 042250Z AUTO 10006KT 9999 -RA OVC048/// 12/11 Q1017
LIRQ 042220Z AUTO 10007KT 9999 // SCT036/// BKN069/// BKN110/// 12/11 Q1017
LIRQ 042150Z 10006KT 9999 -RA BKN044 13/11 Q1017
LIRQ 042120Z 13004KT 9999 -RA BKN050 13/11 Q1017
LIRQ 042050Z 12006KT 9999 -RA BKN050 13/11 Q1016
LIRQ 042020Z 11006KT 9999 BKN050 13/11 Q1016
LIRQ 041950Z 11005KT 9999 SCT055 12/11 Q1016
LIRQ 041920Z 14003KT 110V170 9999 FEW040 BKN054 11/11 Q1016
LIRQ 041850Z VRB01KT 9999 SCT040 10/10 Q1016
LIRQ 041820Z VRB01KT 9999 SCT035 11/10 Q1016
LIRQ 041750Z 14001KT 9999 SCT035 11/11 Q1016
LIRQ 041720Z VRB02KT 9999 SCT035 12/11 Q1015
LIRQ 041650Z VRB01KT 9999 SCT035 12/11 Q1015
LIRQ 041620Z 09003KT 9999 SCT033 11/10 Q1015
LIRQ 041550Z VRB01KT 9999 FEW040 12/11 Q1014
LIRQ 041520Z VRB01KT 9999 FEW040 14/11 Q1014
LIRQ 041450Z 33002KT 9999 FEW025 SCT050 14/12 Q1014
LIRQ 041420Z VRB02KT 9999 FEW038 SCT060 15/11 Q1014
LIRQ 041350Z VRB01KT 9999 -RA SCT050 15/11 Q1014
LIRQ 041320Z 34003KT 310V020 9999 SCT045 BKN075 14/12 Q1013
LIRQ 041250Z VRB02KT 9999 BKN040 14/12 Q1013
LIRQ 041220Z VRB01KT 9999 FEW040 SCT070 14/12 Q1013
LIRQ 041150Z VRB02KT 9999 -DZ SCT065 BKN075 14/11 Q1013
LIRQ 041120Z 33003KT 9999 FEW025 BKN075 13/11 Q1013
LIRQ 041050Z 33004KT 9999 BKN030 13/11 Q1013